Time;durP1;ratioP1;P1;durP2;ratioP2;P2;SDS_P1;SDS_P2;PMS_P1;PMS_P2;Temp;Humidity;BMP_temperature;BMP_pressure;BME280_temperature;BME280_humidity;BME280_pressure;Samples;Min_cycle;Max_cycle;Signal;HPM_P1;HPM_P2
2021/01/26 00:00:52;;;;;;;4.70;1.77;;;;;;;;;;5072429;28;20047;-55
2021/01/26 00:03:19;;;;;;;9.73;2.10;;;;;;;;;;5072406;28;20021;-55
2021/01/26 00:05:46;;;;;;;7.10;2.47;;;;;;;;;;5072119;28;20090;-55
2021/01/26 00:08:13;;;;;;;6.03;1.57;;;;;;;;;;5072524;28;20024;-55
2021/01/26 00:10:40;;;;;;;2.77;1.60;;;;;;;;;;5072230;28;20372;-55
2021/01/26 00:13:07;;;;;;;7.40;2.23;;;;;;;;;;5072285;28;20025;-54
2021/01/26 00:15:35;;;;;;;13.47;2.00;;;;;;;;;;5072419;28;20013;-55
2021/01/26 00:18:02;;;;;;;13.93;2.27;;;;;;;;;;5072535;28;20049;-53
2021/01/26 00:20:29;;;;;;;4.83;2.10;;;;;;;;;;5072165;28;20439;-53
2021/01/26 00:22:56;;;;;;;5.87;1.43;;;;;;;;;;5072248;28;20074;-55
2021/01/26 00:25:26;;;;;;;6.90;1.80;;;;;;;;;;5054084;28;20497;-55
2021/01/26 00:27:52;;;;;;;6.57;1.70;;;;;;;;;;5072378;28;20032;-55
2021/01/26 00:30:21;;;;;;;7.20;1.73;;;;;;;;;;5072031;28;20084;-53
2021/01/26 00:32:48;;;;;;;3.90;2.20;;;;;;;;;;5072124;28;20047;-55
2021/01/26 00:35:16;;;;;;;3.60;2.13;;;;;;;;;;5071998;28;20103;-54
2021/01/26 00:37:43;;;;;;;7.83;2.13;;;;;;;;;;5072261;28;20070;-55
2021/01/26 00:40:10;;;;;;;6.77;1.77;;;;;;;;;;5072093;28;20024;-54
2021/01/26 00:42:37;;;;;;;4.27;1.73;;;;;;;;;;5072018;28;20020;-54
2021/01/26 00:45:05;;;;;;;2.50;1.57;;;;;;;;;;5071867;28;20029;-55
2021/01/26 00:47:32;;;;;;;4.70;1.97;;;;;;;;;;5072084;28;20025;-54
2021/01/26 00:49:59;;;;;;;3.93;1.83;;;;;;;;;;5072024;28;20032;-54
2021/01/26 00:52:25;;;;;;;9.77;1.87;;;;;;;;;;5072076;28;20021;-54
2021/01/26 00:54:52;;;;;;;4.70;1.53;;;;;;;;;;5074780;28;20028;-54
2021/01/26 00:57:19;;;;;;;4.03;1.73;;;;;;;;;;5075503;28;20107;-53
2021/01/26 00:59:52;;;;;;;3.03;1.57;;;;;;;;;;5075396;28;20062;-53
2021/01/26 01:02:19;;;;;;;3.53;1.80;;;;;;;;;;5075465;28;20052;-54
2021/01/26 01:04:46;;;;;;;3.67;1.93;;;;;;;;;;5075294;28;20426;-55
2021/01/26 01:07:14;;;;;;;9.87;2.50;;;;;;;;;;5075141;28;20097;-55
2021/01/26 01:09:41;;;;;;;5.87;2.07;;;;;;;;;;5075387;28;20070;-55
2021/01/26 01:12:08;;;;;;;3.43;1.80;;;;;;;;;;5075173;28;20074;-55
2021/01/26 01:14:35;;;;;;;3.33;1.80;;;;;;;;;;5075191;28;20016;-55
2021/01/26 01:17:02;;;;;;;4.83;2.40;;;;;;;;;;5075248;28;20051;-56
2021/01/26 01:19:29;;;;;;;7.33;2.10;;;;;;;;;;5075242;28;20028;-55
2021/01/26 01:21:55;;;;;;;4.07;1.90;;;;;;;;;;5075039;28;20077;-55
2021/01/26 01:24:22;;;;;;;5.83;2.73;;;;;;;;;;5074949;28;20055;-55
2021/01/26 01:26:49;;;;;;;5.83;2.77;;;;;;;;;;5074973;28;20029;-55
2021/01/26 01:29:16;;;;;;;11.50;2.83;;;;;;;;;;5074929;28;20028;-54
2021/01/26 01:31:43;;;;;;;5.20;2.20;;;;;;;;;;5074887;28;20119;-54
2021/01/26 01:34:10;;;;;;;4.37;2.30;;;;;;;;;;5074728;28;20060;-55
2021/01/26 01:36:37;;;;;;;4.97;2.40;;;;;;;;;;5074754;28;20437;-55
2021/01/26 01:39:08;;;;;;;5.43;2.43;;;;;;;;;;5074822;28;20024;-54
2021/01/26 01:41:36;;;;;;;5.13;2.47;;;;;;;;;;5074688;28;20590;-55
2021/01/26 01:44:04;;;;;;;5.47;2.33;;;;;;;;;;5074706;28;20067;-54
2021/01/26 01:46:32;;;;;;;3.50;2.00;;;;;;;;;;5074572;28;20035;-53
2021/01/26 01:49:00;;;;;;;3.80;1.90;;;;;;;;;;5074808;28;20024;-54
2021/01/26 01:51:28;;;;;;;4.20;1.90;;;;;;;;;;5074553;28;20036;-53
2021/01/26 01:54:00;;;;;;;3.77;1.77;;;;;;;;;;5074432;28;20029;-54
2021/01/26 01:56:27;;;;;;;4.57;1.83;;;;;;;;;;5074518;28;20483;-54
2021/01/26 01:58:57;;;;;;;2.33;1.53;;;;;;;;;;5074457;28;20032;-55
2021/01/26 02:01:26;;;;;;;4.17;1.77;;;;;;;;;;5074281;28;20031;-55
2021/01/26 02:03:55;;;;;;;2.80;1.53;;;;;;;;;;5074167;28;20039;-54
2021/01/26 02:06:24;;;;;;;4.97;1.70;;;;;;;;;;5073136;28;20037;-54
2021/01/26 02:08:57;;;;;;;3.70;1.73;;;;;;;;;;5074181;28;20025;-55
2021/01/26 02:11:24;;;;;;;3.97;1.60;;;;;;;;;;5074190;28;20028;-55
2021/01/26 02:13:51;;;;;;;4.63;1.60;;;;;;;;;;5073981;28;20384;-54
2021/01/26 02:16:38;;;;;;;6.47;1.77;;;;;;;;;;5074036;28;20453;-54
2021/01/26 02:19:05;;;;;;;6.10;1.97;;;;;;;;;;5057230;28;20073;-55
2021/01/26 02:21:45;;;;;;;10.27;1.90;;;;;;;;;;5073879;28;20384;-55
2021/01/26 02:24:23;;;;;;;3.67;1.50;;;;;;;;;;5074114;28;20028;-54
2021/01/26 02:27:01;;;;;;;5.83;1.93;;;;;;;;;;5073846;28;20040;-55
2021/01/26 02:29:28;;;;;;;3.47;2.03;;;;;;;;;;5073744;28;20021;-55
2021/01/26 02:32:10;;;;;;;4.27;1.70;;;;;;;;;;5073691;28;20078;-54
2021/01/26 02:34:55;;;;;;;8.57;2.00;;;;;;;;;;5073688;28;20144;-54
2021/01/26 02:37:41;;;;;;;3.70;1.70;;;;;;;;;;5073654;28;20028;-53
2021/01/26 02:40:20;;;;;;;4.93;1.80;;;;;;;;;;5073511;28;20419;-54
2021/01/26 02:42:50;;;;;;;8.17;1.80;;;;;;;;;;5073554;28;20024;-55
2021/01/26 02:45:17;;;;;;;3.37;1.50;;;;;;;;;;5073186;28;20028;-55
2021/01/26 02:47:47;;;;;;;12.33;1.70;;;;;;;;;;5073383;28;20111;-54
2021/01/26 02:50:26;;;;;;;5.07;1.80;;;;;;;;;;5073798;28;20017;-54
2021/01/26 02:52:58;;;;;;;5.83;1.97;;;;;;;;;;5073270;28;20032;-54
2021/01/26 02:55:25;;;;;;;3.83;1.80;;;;;;;;;;5073177;28;20045;-54
2021/01/26 02:57:53;;;;;;;7.77;2.00;;;;;;;;;;5073156;28;20102;-54
2021/01/26 03:00:23;;;;;;;12.90;2.03;;;;;;;;;;5073024;28;20107;-54
2021/01/26 03:03:13;;;;;;;5.17;1.80;;;;;;;;;;5073154;28;20486;-54
2021/01/26 03:05:51;;;;;;;8.67;2.50;;;;;;;;;;5060375;28;20041;-54
2021/01/26 03:08:24;;;;;;;10.47;3.60;;;;;;;;;;5072934;28;20055;-54
2021/01/26 03:11:20;;;;;;;6.53;2.60;;;;;;;;;;5073034;28;20078;-54
2021/01/26 03:13:59;;;;;;;4.00;1.80;;;;;;;;;;5051908;28;20033;-54
2021/01/26 03:16:27;;;;;;;4.30;1.70;;;;;;;;;;5072906;28;20055;-54
2021/01/26 03:18:58;;;;;;;5.97;2.33;;;;;;;;;;5073012;28;20070;-54
2021/01/26 03:21:26;;;;;;;4.70;2.10;;;;;;;;;;5073273;28;20056;-54
2021/01/26 03:23:58;;;;;;;3.93;2.10;;;;;;;;;;5072804;28;20107;-54
2021/01/26 03:26:27;;;;;;;3.30;1.60;;;;;;;;;;5072713;28;20042;-54
2021/01/26 03:28:56;;;;;;;4.77;1.70;;;;;;;;;;5072914;28;20023;-53
2021/01/26 03:31:31;;;;;;;5.40;1.80;;;;;;;;;;5072700;28;20051;-53
2021/01/26 03:33:58;;;;;;;3.40;1.70;;;;;;;;;;5072782;28;20039;-53
2021/01/26 03:36:24;;;;;;;7.17;2.23;;;;;;;;;;5072645;28;20028;-54
2021/01/26 03:38:52;;;;;;;5.03;2.10;;;;;;;;;;5072645;28;20064;-54
2021/01/26 03:41:20;;;;;;;11.57;2.33;;;;;;;;;;5072745;28;20467;-54
2021/01/26 03:43:48;;;;;;;5.33;2.00;;;;;;;;;;5072560;28;20119;-53
2021/01/26 03:46:20;;;;;;;5.07;2.00;;;;;;;;;;5072488;28;20040;-54
2021/01/26 03:48:57;;;;;;;6.27;1.80;;;;;;;;;;5072696;28;20035;-54
2021/01/26 03:51:35;;;;;;;5.93;2.00;;;;;;;;;;5072660;28;20503;-55
2021/01/26 03:54:27;;;;;;;4.87;1.90;;;;;;;;;;5072466;28;20077;-56
2021/01/26 03:57:13;;;;;;;6.93;1.90;;;;;;;;;;5068241;28;20119;-55
2021/01/26 03:59:39;;;;;;;6.95;2.00;;;;;;;;;;5072504;28;20365;-55
2021/01/26 04:02:06;;;;;;;6.40;1.80;;;;;;;;;;5072599;28;20017;-56
2021/01/26 04:04:45;;;;;;;4.63;2.03;;;;;;;;;;5072400;28;20111;-54
2021/01/26 04:07:22;;;;;;;6.47;2.10;;;;;;;;;;5072235;28;20064;-55
2021/01/26 04:09:55;;;;;;;10.57;2.07;;;;;;;;;;5072147;28;20031;-54
2021/01/26 04:12:23;;;;;;;3.87;1.80;;;;;;;;;;5072295;28;20025;-54
2021/01/26 04:14:50;;;;;;;3.40;1.57;;;;;;;;;;5072265;28;20031;-54
2021/01/26 04:17:23;;;;;;;4.77;1.90;;;;;;;;;;5072606;28;20074;-56
2021/01/26 04:19:55;;;;;;;3.23;1.47;;;;;;;;;;5072293;28;20381;-54
2021/01/26 04:22:22;;;;;;;3.73;1.83;;;;;;;;;;5072299;28;20104;-54
2021/01/26 04:24:49;;;;;;;4.33;1.77;;;;;;;;;;5072180;28;20028;-55
2021/01/26 04:27:22;;;;;;;3.37;1.60;;;;;;;;;;5072048;28;20040;-54
2021/01/26 04:29:50;;;;;;;5.57;1.70;;;;;;;;;;5074521;28;20021;-54
2021/01/26 04:32:17;;;;;;;4.60;1.70;;;;;;;;;;5075894;28;20033;-54
2021/01/26 04:34:44;;;;;;;5.97;2.00;;;;;;;;;;5075829;28;20033;-55
2021/01/26 04:37:11;;;;;;;3.00;1.63;;;;;;;;;;5075796;28;20027;-55
2021/01/26 04:39:38;;;;;;;5.40;1.60;;;;;;;;;;5075689;28;20025;-54
2021/01/26 04:42:11;;;;;;;3.53;1.73;;;;;;;;;;5075907;28;20392;-54
2021/01/26 04:44:56;;;;;;;4.27;1.43;;;;;;;;;;5075722;28;20032;-54
2021/01/26 04:47:27;;;;;;;2.67;1.48;;;;;;;;;;5075714;28;20032;-53
2021/01/26 04:50:09;;;;;;;6.53;2.77;;;;;;;;;;5075826;28;20032;-53
2021/01/26 04:52:48;;;;;;;2.63;1.50;;;;;;;;;;5075586;28;20029;-53
2021/01/26 04:55:31;;;;;;;3.33;1.43;;;;;;;;;;5075718;28;20099;-53
2021/01/26 04:58:03;;;;;;;7.77;1.97;;;;;;;;;;5075766;28;20036;-53
2021/01/26 05:00:38;;;;;;;5.47;2.17;;;;;;;;;;5075486;28;20032;-53
2021/01/26 05:03:25;;;;;;;4.30;1.95;;;;;;;;;;5075342;28;20028;-53
2021/01/26 05:05:55;;;;;;;4.97;1.77;;;;;;;;;;5075326;28;20073;-53
2021/01/26 05:08:24;;;;;;;6.50;1.83;;;;;;;;;;5075314;28;20029;-54
2021/01/26 05:10:55;;;;;;;4.07;1.73;;;;;;;;;;5075207;28;20539;-53
2021/01/26 05:13:27;;;;;;;3.60;1.43;;;;;;;;;;5075262;28;20120;-54
2021/01/26 05:16:15;;;;;;;5.50;1.93;;;;;;;;;;5075299;28;20480;-53
2021/01/26 05:18:57;;;;;;;6.50;2.00;;;;;;;;;;5075179;28;20052;-53
2021/01/26 05:21:33;;;;;;;4.43;2.00;;;;;;;;;;5075016;28;20039;-53
2021/01/26 05:24:03;;;;;;;5.93;1.90;;;;;;;;;;5075020;28;20031;-53
2021/01/26 05:26:30;;;;;;;3.20;1.60;;;;;;;;;;5074852;28;20044;-53
2021/01/26 05:28:57;;;;;;;5.17;1.77;;;;;;;;;;5074967;28;20033;-53
2021/01/26 05:31:28;;;;;;;4.77;1.87;;;;;;;;;;5074923;28;20112;-53
2021/01/26 05:34:00;;;;;;;5.90;1.43;;;;;;;;;;5074964;28;20024;-53
2021/01/26 05:36:27;;;;;;;3.93;1.90;;;;;;;;;;5074868;28;20024;-53
2021/01/26 05:38:53;;;;;;;5.27;2.23;;;;;;;;;;5074955;28;20499;-53
2021/01/26 05:41:21;;;;;;;2.30;1.40;;;;;;;;;;5074595;28;20086;-53
2021/01/26 05:43:49;;;;;;;3.67;1.80;;;;;;;;;;5074723;28;20035;-53
2021/01/26 05:46:35;;;;;;;2.60;1.40;;;;;;;;;;5074486;28;20036;-53
2021/01/26 05:49:02;;;;;;;4.17;1.60;;;;;;;;;;5074602;28;20052;-54
2021/01/26 05:51:29;;;;;;;7.77;1.80;;;;;;;;;;5074538;28;20021;-53
2021/01/26 05:54:01;;;;;;;3.00;1.50;;;;;;;;;;5074744;28;20032;-53
2021/01/26 05:56:29;;;;;;;3.03;1.70;;;;;;;;;;5074808;28;20460;-53
2021/01/26 05:58:56;;;;;;;5.23;1.73;;;;;;;;;;5074388;28;20111;-53
2021/01/26 06:01:22;;;;;;;4.87;1.80;;;;;;;;;;5074348;28;20024;-53
2021/01/26 06:04:05;;;;;;;2.60;1.20;;;;;;;;;;5074389;28;20695;-53
2021/01/26 06:06:31;;;;;;;6.73;1.80;;;;;;;;;;5074175;28;20032;-53
2021/01/26 06:08:58;;;;;;;7.83;1.77;;;;;;;;;;5074131;28;20028;-53
2021/01/26 06:11:29;;;;;;;4.20;1.40;;;;;;;;;;5074043;28;20480;-54
2021/01/26 06:14:15;;;;;;;3.30;1.67;;;;;;;;;;5074062;28;20027;-53
2021/01/26 06:16:42;;;;;;;5.47;2.23;;;;;;;;;;5074187;28;20020;-53
2021/01/26 06:19:09;;;;;;;2.00;0.90;;;;;;;;;;5074307;28;20048;-53
2021/01/26 06:21:52;;;;;;;3.17;1.40;;;;;;;;;;5073951;28;20028;-53
2021/01/26 06:24:20;;;;;;;2.93;1.37;;;;;;;;;;5073788;28;20051;-53
2021/01/26 06:26:59;;;;;;;3.60;1.50;;;;;;;;;;5073870;28;20036;-53
2021/01/26 06:29:37;;;;;;;3.00;1.30;;;;;;;;;;5073765;28;20024;-54
2021/01/26 06:32:18;;;;;;;2.97;1.33;;;;;;;;;;5073843;28;20037;-53
2021/01/26 06:34:45;;;;;;;5.67;2.90;;;;;;;;;;5073771;28;20028;-53
2021/01/26 06:37:18;;;;;;;5.20;1.60;;;;;;;;;;5073723;28;20021;-53
2021/01/26 06:39:55;;;;;;;3.57;1.63;;;;;;;;;;5073865;28;20082;-53
2021/01/26 06:42:40;;;;;;;3.43;1.60;;;;;;;;;;5073451;28;20447;-53
2021/01/26 06:45:29;;;;;;;3.03;1.40;;;;;;;;;;5073464;28;20025;-53
2021/01/26 06:48:17;;;;;;;4.73;2.43;;;;;;;;;;5060815;28;20033;-53
2021/01/26 06:51:02;;;;;;;5.83;1.90;;;;;;;;;;5073491;28;20083;-53
2021/01/26 06:53:47;;;;;;;3.90;1.50;;;;;;;;;;5073030;28;20024;-54
2021/01/26 06:56:32;;;;;;;3.40;2.10;;;;;;;;;;5073293;28;20028;-53
2021/01/26 06:59:08;;;;;;;4.63;1.92;;;;;;;;;;5073386;28;20032;-53
2021/01/26 07:01:45;;;;;;;4.07;1.80;;;;;;;;;;5073114;28;20028;-53
2021/01/26 07:04:18;;;;;;;3.83;1.40;;;;;;;;;;5073099;28;20333;-53
2021/01/26 07:07:04;;;;;;;4.87;1.50;;;;;;;;;;5073005;28;20316;-53
2021/01/26 07:09:31;;;;;;;3.23;1.40;;;;;;;;;;5073226;28;20277;-53
2021/01/26 07:12:07;;;;;;;2.80;1.67;;;;;;;;;;5072960;28;20251;-53
2021/01/26 07:15:03;;;;;;;1.93;1.27;;;;;;;;;;5072950;28;20253;-53
2021/01/26 07:17:40;;;;;;;3.42;1.60;;;;;;;;;;4984944;28;20744;-54
2021/01/26 07:20:17;;;;;;;1.97;1.10;;;;;;;;;;5072832;28;20032;-53
2021/01/26 07:23:02;;;;;;;4.47;1.50;;;;;;;;;;5072846;28;20293;-53
2021/01/26 07:25:47;;;;;;;1.90;1.13;;;;;;;;;;5072745;28;20273;-53
2021/01/26 07:28:32;;;;;;;4.13;1.60;;;;;;;;;;5072722;28;20732;-53
2021/01/26 07:31:20;;;;;;;3.13;1.60;;;;;;;;;;5072811;28;20031;-53
2021/01/26 07:33:52;;;;;;;3.03;1.57;;;;;;;;;;5072649;28;20060;-53
2021/01/26 07:36:25;;;;;;;4.23;1.47;;;;;;;;;;5072806;28;20340;-53
2021/01/26 07:38:51;;;;;;;3.13;2.03;;;;;;;;;;5072750;28;20336;-53
2021/01/26 07:41:27;;;;;;;1.90;1.10;;;;;;;;;;5072913;28;20249;-53
2021/01/26 07:43:59;;;;;;;3.23;1.13;;;;;;;;;;5072581;28;20265;-53
2021/01/26 07:46:35;;;;;;;3.37;1.40;;;;;;;;;;5072716;28;20285;-53
2021/01/26 07:49:01;;;;;;;;;;;;;;;;;;5073022;28;20257;-53
2021/01/26 07:51:36;;;;;;;1.97;1.23;;;;;;;;;;5072670;28;19905;-53
2021/01/26 07:54:18;;;;;;;2.37;1.23;;;;;;;;;;5072494;28;20644;-53
2021/01/26 07:56:45;;;;;;;3.97;1.47;;;;;;;;;;5072418;28;20582;-53
2021/01/26 07:59:23;;;;;;;6.50;1.70;;;;;;;;;;5072490;28;20331;-53
2021/01/26 08:01:59;;;;;;;2.63;1.20;;;;;;;;;;5072459;28;20250;-53
2021/01/26 08:04:28;;;;;;;2.70;1.40;;;;;;;;;;5074123;28;20356;-53
2021/01/26 08:06:59;;;;;;;3.27;1.30;;;;;;;;;;5076538;28;20363;-53
2021/01/26 08:09:38;;;;;;;2.40;1.43;;;;;;;;;;5076663;28;20261;-53
2021/01/26 08:12:07;;;;;;;3.53;1.67;;;;;;;;;;5076481;28;20612;-53
2021/01/26 08:14:54;;;;;;;4.43;1.47;;;;;;;;;;5076335;28;20241;-53
2021/01/26 08:17:28;;;;;;;2.63;1.43;;;;;;;;;;5076370;28;20264;-53
2021/01/26 08:20:08;;;;;;;3.05;1.90;;;;;;;;;;5075943;28;20499;-53
2021/01/26 08:22:39;;;;;;;7.73;1.93;;;;;;;;;;5076339;28;20033;-53
2021/01/26 08:25:24;;;;;;;2.70;1.60;;;;;;;;;;5076178;28;20249;-53
2021/01/26 08:27:53;;;;;;;6.57;1.42;;;;;;;;;;5076154;28;20285;-53
2021/01/26 08:30:22;;;;;;;3.43;1.40;;;;;;;;;;5075999;28;20031;-53
2021/01/26 08:33:04;;;;;;;2.10;1.07;;;;;;;;;;5076029;28;20249;-53
2021/01/26 08:35:33;;;;;;;4.73;1.40;;;;;;;;;;5075962;28;20241;-53
2021/01/26 08:38:02;;;;;;;3.67;1.50;;;;;;;;;;5076068;28;20272;-54
2021/01/26 08:40:28;;;;;;;2.40;1.60;;;;;;;;;;5076112;28;20260;-53
2021/01/26 08:42:57;;;;;;;3.30;1.67;;;;;;;;;;5076101;28;20252;-53
2021/01/26 08:45:26;;;;;;;4.13;1.60;;;;;;;;;;5075582;28;20261;-53
2021/01/26 08:47:54;;;;;;;4.13;1.60;;;;;;;;;;5075736;28;20265;-54
2021/01/26 08:50:23;;;;;;;3.43;1.60;;;;;;;;;;5075652;28;20334;-53
2021/01/26 08:52:50;;;;;;;3.27;1.70;;;;;;;;;;5075581;28;20253;-53
2021/01/26 08:55:34;;;;;;;4.03;1.87;;;;;;;;;;5075740;28;20261;-53
2021/01/26 08:58:01;;;;;;;3.33;1.90;;;;;;;;;;5075647;28;20261;-53
2021/01/26 09:00:29;;;;;;;3.70;1.73;;;;;;;;;;5075486;28;20257;-53
2021/01/26 09:02:56;;;;;;;3.33;1.80;;;;;;;;;;5075558;28;20303;-53
2021/01/26 09:05:52;;;;;;;3.93;1.80;;;;;;;;;;5075509;28;20272;-53
2021/01/26 09:08:37;;;;;;;3.10;1.95;;;;;;;;;;4986954;28;20756;-53
2021/01/26 09:11:04;;;;;;;2.22;1.42;;;;;;;;;;5075558;28;20033;-53
2021/01/26 09:13:33;;;;;;;3.70;1.60;;;;;;;;;;5075207;28;20026;-53
2021/01/26 09:16:02;;;;;;;2.77;1.50;;;;;;;;;;5074826;28;20249;-53
2021/01/26 09:18:30;;;;;;;3.60;1.80;;;;;;;;;;5075029;28;20282;-53
2021/01/26 09:21:02;;;;;;;2.40;1.40;;;;;;;;;;5074012;28;20416;-54
2021/01/26 09:23:30;;;;;;;2.60;1.53;;;;;;;;;;5073897;28;20249;-53
2021/01/26 09:25:57;;;;;;;4.23;1.80;;;;;;;;;;5073820;28;20778;-53
2021/01/26 09:28:25;;;;;;;3.13;1.50;;;;;;;;;;5074046;28;20252;-53
2021/01/26 09:30:59;;;;;;;4.57;1.67;;;;;;;;;;5074042;28;20256;-53
2021/01/26 09:33:29;;;;;;;3.40;1.60;;;;;;;;;;5073899;28;20763;-53
2021/01/26 09:36:02;;;;;;;2.27;1.20;;;;;;;;;;5073909;28;20253;-53
2021/01/26 09:38:33;;;;;;;2.30;1.27;;;;;;;;;;5073876;28;20284;-53
2021/01/26 09:41:05;;;;;;;2.67;1.50;;;;;;;;;;5073669;28;20667;-53
2021/01/26 09:43:37;;;;;;;2.67;1.30;;;;;;;;;;5073641;28;20268;-53
2021/01/26 09:46:09;;;;;;;3.10;1.50;;;;;;;;;;5073446;28;20291;-53
2021/01/26 09:48:46;;;;;;;2.33;1.50;;;;;;;;;;5073568;28;20272;-53
2021/01/26 09:51:22;;;;;;;2.33;1.20;;;;;;;;;;5073620;28;20806;-53
2021/01/26 09:53:50;;;;;;;4.13;1.80;;;;;;;;;;5073433;28;20264;-53
2021/01/26 09:56:20;;;;;;;3.47;1.87;;;;;;;;;;5073588;28;20254;-53
2021/01/26 09:58:50;;;;;;;3.97;1.53;;;;;;;;;;5073394;28;20590;-53
2021/01/26 10:01:17;;;;;;;3.97;1.53;;;;;;;;;;5073309;28;20250;-53
2021/01/26 10:03:44;;;;;;;5.03;1.80;;;;;;;;;;5073299;28;20245;-53
2021/01/26 10:06:12;;;;;;;2.60;1.60;;;;;;;;;;5073194;28;20285;-53
2021/01/26 10:08:39;;;;;;;3.67;1.70;;;;;;;;;;5073198;28;20328;-53
2021/01/26 10:11:13;;;;;;;2.93;1.33;;;;;;;;;;5073291;28;20600;-53
2021/01/26 10:13:41;;;;;;;3.57;1.60;;;;;;;;;;5073216;28;20605;-53
2021/01/26 10:16:26;;;;;;;4.13;1.70;;;;;;;;;;5073008;28;20261;-53
2021/01/26 10:19:07;;;;;;;3.47;1.60;;;;;;;;;;4759131;28;8975965;-53
2021/01/26 10:21:34;;;;;;;3.60;2.10;;;;;;;;;;5073955;28;20066;-53
2021/01/26 10:24:14;;;;;;;7.77;1.93;;;;;;;;;;5073923;28;20250;-53
2021/01/26 10:26:42;;;;;;;3.43;1.80;;;;;;;;;;5073195;28;20292;-53
2021/01/26 10:29:12;;;;;;;3.57;2.00;;;;;;;;;;5073868;28;20619;-53
2021/01/26 10:31:50;;;;;;;3.47;2.07;;;;;;;;;;5073768;28;20650;-53
2021/01/26 10:34:36;;;;;;;3.20;2.00;;;;;;;;;;5073990;28;20288;-53
2021/01/26 10:37:10;;;;;;;3.07;1.73;;;;;;;;;;5073742;28;20589;-53
2021/01/26 10:39:37;;;;;;;4.40;1.90;;;;;;;;;;5073653;28;20250;-53
2021/01/26 10:42:23;;;;;;;3.53;1.73;;;;;;;;;;5073734;28;20024;-53
2021/01/26 10:44:52;;;;;;;4.90;2.30;;;;;;;;;;5073413;28;20262;-53
2021/01/26 10:47:28;;;;;;;3.30;2.20;;;;;;;;;;5073328;28;20288;-53
2021/01/26 10:50:00;;;;;;;3.63;1.70;;;;;;;;;;5073428;28;20715;-53
2021/01/26 10:52:37;;;;;;;2.67;1.57;;;;;;;;;;5073282;28;20309;-53
2021/01/26 10:55:05;;;;;;;2.70;1.43;;;;;;;;;;5073422;28;20276;-53
2021/01/26 10:57:32;;;;;;;6.50;1.90;;;;;;;;;;5073204;28;20249;-53
2021/01/26 10:59:59;;;;;;;7.83;2.27;;;;;;;;;;5073204;28;20264;-53
2021/01/26 11:02:25;;;;;;;3.30;1.53;;;;;;;;;;5073155;28;20258;-53
2021/01/26 11:04:52;;;;;;;3.57;1.40;;;;;;;;;;5021881;28;20732;-53
2021/01/26 11:07:19;;;;;;;3.03;1.83;;;;;;;;;;5073319;28;20289;-53
2021/01/26 11:09:48;;;;;;;3.70;2.03;;;;;;;;;;5072993;28;20641;-53
2021/01/26 11:12:15;;;;;;;4.23;2.00;;;;;;;;;;5073032;28;20261;-53
2021/01/26 11:14:43;;;;;;;4.47;2.13;;;;;;;;;;5072928;28;20624;-53
2021/01/26 11:17:09;;;;;;;3.33;1.67;;;;;;;;;;5072917;28;20261;-53
2021/01/26 11:19:36;;;;;;;5.13;1.60;;;;;;;;;;5073189;28;20284;-53
2021/01/26 11:22:03;;;;;;;3.80;2.10;;;;;;;;;;5072854;28;20260;-53
2021/01/26 11:24:30;;;;;;;3.93;2.07;;;;;;;;;;5072950;28;20260;-53
2021/01/26 11:26:57;;;;;;;2.37;1.43;;;;;;;;;;5072815;28;20376;-53
2021/01/26 11:29:23;;;;;;;2.63;1.57;;;;;;;;;;5072813;28;20295;-53
2021/01/26 11:31:50;;;;;;;4.00;1.67;;;;;;;;;;5072971;28;20262;-53
2021/01/26 11:34:17;;;;;;;3.67;1.33;;;;;;;;;;5054911;28;20250;-53
2021/01/26 11:36:44;;;;;;;3.67;1.83;;;;;;;;;;5072863;28;20241;-53
2021/01/26 11:39:10;;;;;;;3.17;1.73;;;;;;;;;;5072752;28;20253;-53
2021/01/26 11:41:39;;;;;;;5.97;1.57;;;;;;;;;;5072636;28;20253;-53
2021/01/26 11:44:06;;;;;;;3.73;1.83;;;;;;;;;;5072646;28;20257;-53
2021/01/26 11:46:33;;;;;;;3.70;1.87;;;;;;;;;;5072516;28;20323;-53
2021/01/26 11:49:00;;;;;;;3.10;1.63;;;;;;;;;;5072564;28;20759;-53
2021/01/26 11:51:27;;;;;;;3.00;1.80;;;;;;;;;;5072568;28;20249;-53
2021/01/26 11:53:54;;;;;;;4.97;2.43;;;;;;;;;;5072683;28;20337;-53
2021/01/26 11:56:22;;;;;;;3.10;1.80;;;;;;;;;;5072564;28;20288;-53
2021/01/26 11:58:49;;;;;;;4.70;2.40;;;;;;;;;;5072525;28;20246;-53
2021/01/26 12:01:17;;;;;;;4.20;2.20;;;;;;;;;;5072941;28;20250;-53
2021/01/26 12:03:44;;;;;;;4.20;2.23;;;;;;;;;;5072383;28;20249;-53
2021/01/26 12:06:11;;;;;;;4.67;1.90;;;;;;;;;;5072479;28;20343;-53
2021/01/26 12:08:38;;;;;;;3.50;2.13;;;;;;;;;;5072508;28;20249;-53
2021/01/26 12:11:06;;;;;;;3.93;2.03;;;;;;;;;;5072479;28;20257;-53
2021/01/26 12:13:32;;;;;;;8.60;2.17;;;;;;;;;;5072350;28;20261;-53
2021/01/26 12:15:59;;;;;;;5.97;2.13;;;;;;;;;;5072575;28;20253;-53
2021/01/26 12:18:26;;;;;;;9.60;2.47;;;;;;;;;;5072649;28;20285;-53
2021/01/26 12:20:53;;;;;;;3.47;2.10;;;;;;;;;;5072299;28;20261;-53
2021/01/26 12:23:20;;;;;;;4.13;1.90;;;;;;;;;;5072338;28;20361;-53
2021/01/26 12:25:47;;;;;;;4.80;2.40;;;;;;;;;;5072226;28;20296;-53
2021/01/26 12:28:13;;;;;;;4.40;2.27;;;;;;;;;;5072132;28;20269;-53
2021/01/26 12:30:40;;;;;;;3.40;1.87;;;;;;;;;;5072320;28;20246;-53
2021/01/26 12:33:07;;;;;;;3.60;2.20;;;;;;;;;;5072060;28;20744;-53
2021/01/26 12:35:35;;;;;;;4.43;2.10;;;;;;;;;;5072127;28;20748;-53
2021/01/26 12:38:03;;;;;;;2.77;1.73;;;;;;;;;;5072115;28;20707;-53
2021/01/26 12:40:30;;;;;;;5.03;1.83;;;;;;;;;;5072304;28;20238;-53
2021/01/26 12:42:57;;;;;;;4.03;2.00;;;;;;;;;;5071972;28;20253;-53
2021/01/26 12:45:26;;;;;;;3.30;2.23;;;;;;;;;;5072082;28;20755;-53
2021/01/26 12:47:53;;;;;;;6.70;2.80;;;;;;;;;;5072040;28;20359;-53
2021/01/26 12:50:21;;;;;;;4.77;2.17;;;;;;;;;;5073361;28;20252;-53
2021/01/26 12:52:48;;;;;;;5.50;2.10;;;;;;;;;;5075599;28;20594;-53
2021/01/26 12:55:15;;;;;;;4.03;1.93;;;;;;;;;;5075671;28;20598;-53
2021/01/26 12:57:44;;;;;;;4.77;2.03;;;;;;;;;;5075613;28;20245;-53
2021/01/26 13:00:12;;;;;;;4.10;2.03;;;;;;;;;;5075696;28;20736;-53
2021/01/26 13:02:39;;;;;;;4.00;2.17;;;;;;;;;;5075480;28;20252;-53
2021/01/26 13:05:07;;;;;;;6.10;2.30;;;;;;;;;;5075432;28;20258;-53
2021/01/26 13:07:34;;;;;;;5.80;2.60;;;;;;;;;;5075395;28;20281;-53
2021/01/26 13:10:01;;;;;;;4.50;2.50;;;;;;;;;;5075283;28;20272;-53
2021/01/26 13:12:27;;;;;;;4.43;2.10;;;;;;;;;;5075164;28;20258;-53
2021/01/26 13:14:54;;;;;;;6.67;2.47;;;;;;;;;;5075283;28;20248;-53
2021/01/26 13:17:21;;;;;;;8.27;3.17;;;;;;;;;;5075185;28;20265;-53
2021/01/26 13:19:48;;;;;;;8.07;3.03;;;;;;;;;;5075494;28;20285;-53
2021/01/26 13:22:15;;;;;;;4.83;2.63;;;;;;;;;;5075047;28;20257;-53
2021/01/26 13:24:41;;;;;;;5.37;2.77;;;;;;;;;;5075160;28;20249;-53
2021/01/26 13:27:08;;;;;;;4.87;2.50;;;;;;;;;;5074924;28;20359;-53
2021/01/26 13:29:35;;;;;;;4.47;2.63;;;;;;;;;;5075690;28;20250;-53
2021/01/26 13:32:02;;;;;;;6.70;3.17;;;;;;;;;;5074954;28;20280;-53
2021/01/26 13:34:29;;;;;;;5.53;3.03;;;;;;;;;;5074920;28;20346;-53
2021/01/26 13:36:56;;;;;;;4.60;2.63;;;;;;;;;;5074843;28;20254;-53
2021/01/26 13:39:23;;;;;;;6.83;2.87;;;;;;;;;;5074844;28;20249;-53
2021/01/26 13:41:55;;;;;;;6.57;3.07;;;;;;;;;;5074919;28;20735;-53
2021/01/26 13:44:23;;;;;;;5.97;3.00;;;;;;;;;;5074536;28;20332;-53
2021/01/26 13:46:49;;;;;;;5.57;2.73;;;;;;;;;;5074621;28;20361;-53
2021/01/26 13:49:16;;;;;;;7.23;3.67;;;;;;;;;;5074812;28;20281;-53
2021/01/26 13:51:43;;;;;;;9.47;3.80;;;;;;;;;;5074553;28;20605;-53
2021/01/26 13:54:10;;;;;;;6.77;3.53;;;;;;;;;;5074504;28;20620;-53
2021/01/26 13:56:37;;;;;;;6.57;3.60;;;;;;;;;;5074503;28;20258;-53
2021/01/26 13:59:04;;;;;;;12.57;4.73;;;;;;;;;;5074558;28;20306;-53
2021/01/26 14:01:30;;;;;;;14.10;4.97;;;;;;;;;;5073193;28;20655;-53
2021/01/26 14:03:57;;;;;;;12.47;5.87;;;;;;;;;;5074329;28;20261;-53
2021/01/26 14:06:24;;;;;;;16.00;4.40;;;;;;;;;;5074307;28;20292;-53
2021/01/26 14:08:51;;;;;;;8.00;3.93;;;;;;;;;;5074339;28;20262;-53
2021/01/26 14:11:18;;;;;;;7.87;3.03;;;;;;;;;;5074274;28;20245;-54
2021/01/26 14:13:45;;;;;;;8.07;4.30;;;;;;;;;;5074243;28;20265;-54
2021/01/26 14:16:12;;;;;;;7.60;3.73;;;;;;;;;;5074108;28;20249;-54
2021/01/26 14:18:39;;;;;;;8.67;3.47;;;;;;;;;;5074151;28;20360;-54
2021/01/26 14:21:05;;;;;;;7.37;3.43;;;;;;;;;;5073894;28;20261;-53
2021/01/26 14:23:32;;;;;;;9.70;4.73;;;;;;;;;;5074035;28;20297;-54
2021/01/26 14:25:59;;;;;;;6.77;3.77;;;;;;;;;;5073757;28;20274;-54
2021/01/26 14:28:26;;;;;;;8.13;4.23;;;;;;;;;;5073806;28;20304;-54
2021/01/26 14:30:52;;;;;;;8.57;4.37;;;;;;;;;;5073886;28;20241;-54
2021/01/26 14:33:19;;;;;;;9.53;4.87;;;;;;;;;;5073826;28;20640;-54
2021/01/26 14:35:46;;;;;;;8.80;4.03;;;;;;;;;;5073703;28;20728;-54
2021/01/26 14:38:13;;;;;;;12.40;4.50;;;;;;;;;;5073580;28;20074;-54
2021/01/26 14:40:40;;;;;;;7.30;4.13;;;;;;;;;;5073558;28;20039;-54
2021/01/26 14:43:07;;;;;;;10.70;4.20;;;;;;;;;;5073493;28;20024;-54
2021/01/26 14:45:33;;;;;;;11.17;4.10;;;;;;;;;;5073302;28;20377;-54
2021/01/26 14:48:00;;;;;;;8.37;4.00;;;;;;;;;;5073524;28;20036;-54
2021/01/26 14:50:29;;;;;;;8.63;4.47;;;;;;;;;;5073429;28;20028;-54
2021/01/26 14:52:56;;;;;;;8.50;4.37;;;;;;;;;;5073414;28;20468;-54
2021/01/26 14:55:24;;;;;;;10.03;4.60;;;;;;;;;;5073360;28;20082;-54
2021/01/26 14:57:50;;;;;;;8.90;4.53;;;;;;;;;;5073171;28;20387;-54
2021/01/26 15:00:18;;;;;;;9.13;3.87;;;;;;;;;;5073343;28;20028;-54
2021/01/26 15:02:47;;;;;;;8.30;3.80;;;;;;;;;;5073241;28;20029;-54
2021/01/26 15:05:14;;;;;;;9.87;4.60;;;;;;;;;;5073317;28;20082;-54